Time;durP1;ratioP1;P1;durP2;ratioP2;P2;SDS_P1;SDS_P2;PMS_P1;PMS_P2;Temp;Humidity;BMP_temperature;BMP_pressure;BME280_temperature;BME280_humidity;BME280_pressure;Samples;Min_cycle;Max_cycle;Signal;HPM_P1;HPM_P2
2022/01/18 00:00:14;;;;;;;1.73;1.00;;;18.70;62.40;;;;;;10509536;28;20528;-54
2022/01/18 00:05:16;;;;;;;3.22;1.13;;;18.70;62.50;;;;;;10524925;28;20065;-52
2022/01/18 00:10:17;;;;;;;2.25;0.80;;;18.60;62.60;;;;;;10524001;28;20111;-53
2022/01/18 00:20:39;;;;;;;2.78;0.90;;;18.50;62.70;;;;;;10477969;28;20036;-49
2022/01/18 00:25:43;;;;;;;3.10;1.05;;;18.50;62.70;;;;;;10506843;28;20049;-52
2022/01/18 00:31:15;;;;;;;3.50;1.50;;;18.60;62.60;;;;;;10504125;28;20485;-53
2022/01/18 00:36:24;;;;;;;2.17;0.90;;;18.70;62.30;;;;;;10499655;28;20028;-53
2022/01/18 00:41:26;;;;;;;3.50;1.08;;;18.60;62.30;;;;;;10507250;28;20499;-53
2022/01/18 00:46:27;;;;;;;3.20;1.20;;;18.70;62.20;;;;;;10493793;28;20564;-52
2022/01/18 00:51:34;;;;;;;3.97;1.30;;;18.60;62.40;;;;;;10481568;28;20035;-54
2022/01/18 00:56:39;;;;;;;3.78;1.42;;;18.70;62.20;;;;;;10520074;28;20581;-51
2022/01/18 01:01:40;;;;;;;2.28;1.00;;;18.60;62.30;;;;;;10521176;28;20457;-52
2022/01/18 01:06:40;;;;;;;3.63;1.20;;;18.60;62.30;;;;;;10508655;28;20035;-52
2022/01/18 01:11:41;;;;;;;2.08;1.50;;;18.60;62.20;;;;;;10525570;28;20024;-52
2022/01/18 01:17:13;;;;;;;3.13;2.05;;;18.60;62.30;;;;;;10497796;28;20104;-53
2022/01/18 01:43:49;;;;;;;4.63;0.90;;;18.70;62.20;;;;;;10500572;28;20108;-53
2022/01/18 01:48:53;;;;;;;2.38;0.70;;;18.60;62.20;;;;;;10512280;28;20431;-53
2022/01/18 01:53:54;;;;;;;3.70;1.30;;;18.60;62.10;;;;;;10513865;28;20017;-54
2022/01/18 01:58:56;;;;;;;2.78;0.90;;;18.60;62.20;;;;;;10496214;28;20028;-52
2022/01/18 02:03:57;;;;;;;3.13;1.00;;;18.70;62.20;;;;;;10503476;28;20032;-52
2022/01/18 02:08:58;;;;;;;4.00;1.25;;;18.60;62.30;;;;;;10499745;28;20063;-53
2022/01/18 02:14:00;;;;;;;3.35;1.10;;;18.70;62.10;;;;;;10499047;28;20107;-52
2022/01/18 02:24:22;;;;;;;4.53;1.63;;;18.60;62.10;;;;;;10484103;28;20040;-53
2022/01/18 02:29:23;;;;;;;1.92;0.85;;;18.60;62.00;;;;;;10539826;28;20077;-53
2022/01/18 02:34:24;;;;;;;3.65;1.23;;;18.70;62.00;;;;;;10505036;28;20086;-53
2022/01/18 02:39:28;;;;;;;2.80;1.20;;;18.60;62.10;;;;;;10493478;28;20492;-53
2022/01/18 02:44:30;;;;;;;3.47;1.42;;;18.70;61.90;;;;;;10535953;28;20038;-54
2022/01/18 02:49:31;;;;;;;3.22;1.25;;;18.60;62.00;;;;;;10497706;28;20033;-52
2022/01/18 02:54:32;;;;;;;2.95;1.10;;;18.70;62.00;;;;;;10464170;28;20449;-53
2022/01/18 02:59:45;;;;;;;4.63;1.33;;;18.60;62.00;;;;;;10493038;28;20036;-52
2022/01/18 03:04:49;;;;;;;4.13;1.10;;;18.60;62.00;;;;;;10506882;28;20027;-53
2022/01/18 03:09:50;;;;;;;2.95;0.93;;;18.60;62.00;;;;;;10510557;28;20116;-53
2022/01/18 03:14:50;;;;;;;2.17;0.90;;;18.60;62.00;;;;;;10502497;28;20484;-51
2022/01/18 03:19:51;;;;;;;1.95;0.80;;;18.60;62.60;;;;;;10503120;28;20457;-50
2022/01/18 03:29:58;;;;;;;5.43;1.38;;;18.60;61.90;;;;;;10524749;28;20044;-53
2022/01/18 03:34:59;;;;;;;3.30;1.30;;;18.60;62.00;;;;;;10497099;28;20111;-52
2022/01/18 03:40:00;;;;;;;2.95;1.30;;;18.70;61.90;;;;;;10496464;28;20028;-53
2022/01/18 03:45:04;;;;;;;2.70;1.08;;;18.60;62.00;;;;;;10496794;28;20036;-52
2022/01/18 03:50:06;;;;;;;2.72;0.70;;;18.60;61.90;;;;;;10482100;28;20035;-53
2022/01/18 03:55:09;;;;;;;2.30;0.95;;;18.60;61.90;;;;;;10494326;28;20024;-52
2022/01/18 04:00:26;;;;;;;3.10;1.50;;;18.70;61.80;;;;;;10471758;28;20035;-53
2022/01/18 04:05:27;;;;;;;2.35;1.00;;;18.60;61.80;;;;;;10486433;28;20032;-52
2022/01/18 04:10:28;;;;;;;2.63;0.90;;;18.70;61.80;;;;;;10495882;28;20028;-52
2022/01/18 04:15:31;;;;;;;2.50;0.82;;;18.60;61.90;;;;;;10502871;28;20032;-53
2022/01/18 04:26:03;;;;;;;3.38;1.23;;;18.60;61.80;;;;;;10499565;28;20036;-52
2022/01/18 04:31:06;;;;;;;2.85;1.10;;;18.60;61.80;;;;;;10510573;28;20040;-53
2022/01/18 04:36:08;;;;;;;2.75;0.98;;;18.60;61.80;;;;;;10495834;28;20075;-50
2022/01/18 04:41:13;;;;;;;3.30;1.23;;;18.70;61.70;;;;;;10539668;28;20106;-51
2022/01/18 04:51:35;;;;;;;2.70;0.95;;;18.70;61.70;;;;;;10508618;28;20032;-53
2022/01/18 05:01:40;;;;;;;2.72;1.00;;;18.60;61.70;;;;;;10508729;28;20040;-49
2022/01/18 05:06:42;;;;;;;2.22;0.80;;;18.60;61.80;;;;;;10519582;28;20047;-53
2022/01/18 05:27:33;;;;;;;3.10;0.98;;;18.60;61.70;;;;;;10515205;28;20044;-53
2022/01/18 05:32:34;;;;;;;1.98;0.82;;;18.70;61.70;;;;;;10431666;28;20124;-53
2022/01/18 05:37:35;;;;;;;1.95;0.88;;;18.60;61.70;;;;;;10427340;28;20588;-50
2022/01/18 05:42:35;;;;;;;2.42;0.80;;;18.70;61.70;;;;;;10443680;28;20029;-52
2022/01/18 05:47:38;;;;;;;2.13;1.00;;;18.60;61.80;;;;;;10430287;28;20389;-52
2022/01/18 05:52:41;;;;;;;2.95;1.70;;;18.70;61.70;;;;;;10439890;28;20025;-54
2022/01/18 05:57:42;;;;;;;2.38;1.13;;;18.60;61.90;;;;;;10434655;28;20072;-53
2022/01/18 06:07:43;;;;;;;3.17;1.33;;;18.80;62.60;;;;;;10447455;28;20037;-57
2022/01/18 06:12:44;;;;;;;7.53;2.53;;;18.70;63.80;;;;;;10437033;28;20032;-56
2022/01/18 06:17:46;;;;;;;4.70;1.80;;;18.80;63.70;;;;;;10437627;28;20057;-56
2022/01/18 06:22:49;;;;;;;3.47;1.27;;;18.70;64.20;;;;;;10444613;28;20037;-54
2022/01/18 06:27:51;;;;;;;4.75;1.02;;;18.80;64.00;;;;;;10431983;28;20473;-56
2022/01/18 06:32:51;;;;;;;4.43;1.13;;;18.80;63.60;;;;;;10485647;28;20048;-54
2022/01/18 06:37:52;;;;;;;3.95;1.30;;;18.80;63.60;;;;;;10509306;28;20028;-57
2022/01/18 06:42:53;;;;;;;4.00;1.20;;;18.70;64.30;;;;;;10495668;28;20040;-53
2022/01/18 06:47:53;;;;;;;8.52;1.30;;;18.70;64.10;;;;;;10524069;28;20053;-53
2022/01/18 06:52:54;;;;;;;5.70;1.38;;;18.60;64.60;;;;;;10522342;28;20055;-52
2022/01/18 06:57:56;;;;;;;6.47;1.25;;;18.60;63.80;;;;;;10479774;28;20028;-54
2022/01/18 07:02:56;;;;;;;12.23;2.35;;;18.50;63.40;;;;;;10476397;28;20108;-52
2022/01/18 07:07:57;;;;;;;9.63;2.15;;;18.60;63.40;;;;;;10495056;28;20110;-53
2022/01/18 07:13:00;;;;;;;4.53;1.38;;;18.60;63.40;;;;;;10523247;28;20107;-52
2022/01/18 07:18:01;;;;;;;4.38;1.30;;;18.50;63.30;;;;;;10483883;28;20028;-52
2022/01/18 07:23:02;;;;;;;7.60;2.15;;;18.50;63.60;;;;;;10496936;28;20064;-52
2022/01/18 07:28:02;;;;;;;6.60;0.93;;;18.60;62.90;;;;;;10520283;28;20032;-53
2022/01/18 07:33:04;;;;;;;7.13;0.95;;;18.70;62.20;;;;;;10521685;28;20056;-51
2022/01/18 07:38:06;;;;;;;6.60;1.48;;;18.70;62.20;;;;;;10495463;28;20041;-53
2022/01/18 07:43:06;;;;;;;8.90;1.60;;;18.60;62.50;;;;;;10488028;28;20107;-51
2022/01/18 07:48:07;;;;;;;3.75;0.80;;;18.60;63.00;;;;;;10518852;28;20036;-53
2022/01/18 07:53:10;;;;;;;9.23;3.35;;;18.60;63.20;;;;;;10506145;28;20103;-54
2022/01/18 07:58:11;;;;;;;4.57;2.20;;;18.50;63.40;;;;;;10503544;28;20034;-55
2022/01/18 08:03:11;;;;;;;4.65;1.10;;;18.40;63.90;;;;;;10502340;28;20111;-54
2022/01/18 08:08:12;;;;;;;3.30;1.35;;;18.40;64.00;;;;;;10530000;28;20017;-52
2022/01/18 08:13:13;;;;;;;3.17;1.27;;;18.40;63.30;;;;;;10534487;28;20024;-53
2022/01/18 08:18:15;;;;;;;5.10;1.05;;;18.40;63.00;;;;;;10494901;28;20028;-53
2022/01/18 08:23:16;;;;;;;2.63;1.02;;;18.50;63.30;;;;;;10537644;28;20126;-54
2022/01/18 08:28:16;;;;;;;4.55;1.38;;;18.50;63.50;;;;;;10498050;28;20526;-52
2022/01/18 08:33:19;;;;;;;3.35;0.95;;;18.40;63.70;;;;;;10481493;28;20098;-53
2022/01/18 08:38:22;;;;;;;3.33;0.95;;;18.40;63.80;;;;;;10505565;28;20465;-54
2022/01/18 08:43:23;;;;;;;3.20;0.98;;;18.30;64.00;;;;;;10507963;28;20368;-54
2022/01/18 08:48:24;;;;;;;1.60;0.80;;;18.40;63.90;;;;;;10517376;28;20077;-53
2022/01/18 08:53:24;;;;;;;3.70;1.20;;;18.40;63.70;;;;;;10518074;28;20032;-52
2022/01/18 08:58:26;;;;;;;3.17;0.63;;;18.50;63.00;;;;;;10533294;28;20105;-53
2022/01/18 09:03:27;;;;;;;2.78;1.02;;;18.40;63.50;;;;;;10521961;28;20485;-53
2022/01/18 09:08:28;;;;;;;2.70;0.63;;;18.50;63.30;;;;;;10529627;28;20073;-53
2022/01/18 09:13:29;;;;;;;2.92;0.80;;;18.50;63.10;;;;;;10513845;28;20478;-55
2022/01/18 09:18:30;;;;;;;4.55;1.02;;;18.40;63.50;;;;;;10494983;28;20028;-55
2022/01/18 09:23:31;;;;;;;3.00;0.77;;;18.40;63.30;;;;;;10518337;28;20115;-54
2022/01/18 09:28:32;;;;;;;8.35;1.55;;;18.50;63.20;;;;;;10466629;28;20024;-56
2022/01/18 09:33:33;;;;;;;1.60;0.52;;;18.40;63.30;;;;;;10522309;28;20040;-54
2022/01/18 09:38:34;;;;;;;2.47;0.85;;;18.40;63.20;;;;;;10486297;28;20062;-55
2022/01/18 09:43:37;;;;;;;1.55;0.75;;;18.60;62.70;;;;;;10496664;28;20020;-56
2022/01/18 09:48:38;;;;;;;2.13;1.02;;;18.60;62.70;;;;;;10501514;28;20037;-55
2022/01/18 09:53:38;;;;;;;2.42;1.08;;;18.60;62.60;;;;;;10500209;28;20033;-56
2022/01/18 09:58:39;;;;;;;2.40;0.70;;;18.60;62.40;;;;;;10524309;28;20032;-56
2022/01/18 10:03:41;;;;;;;3.22;1.17;;;18.50;62.40;;;;;;10481631;28;20070;-54
2022/01/18 10:08:48;;;;;;;2.03;1.00;;;18.60;62.50;;;;;;10476405;28;20028;-55
2022/01/18 10:13:49;;;;;;;2.00;0.60;;;18.60;62.30;;;;;;10527849;28;20555;-54
2022/01/18 10:19:03;;;;;;;2.28;0.70;;;18.60;62.00;;;;;;10513878;28;20047;-55
2022/01/18 10:24:25;;;;;;;1.67;0.60;;;18.60;62.10;;;;;;10513020;28;20028;-55
2022/01/18 10:29:30;;;;;;;2.05;0.77;;;18.50;62.20;;;;;;10523859;28;20025;-55
2022/01/18 10:35:03;;;;;;;2.10;0.98;;;18.50;62.70;;;;;;10519575;28;20030;-57
2022/01/18 10:40:16;;;;;;;1.30;0.70;;;18.60;62.50;;;;;;10503683;28;20361;-56
2022/01/18 10:45:33;;;;;;;1.70;0.82;;;18.50;65.30;;;;;;10503092;28;20069;-55
2022/01/18 10:50:41;;;;;;;4.90;0.80;;;18.40;63.80;;;;;;10505278;28;20537;-54
2022/01/18 10:55:43;;;;;;;1.45;0.55;;;18.40;63.50;;;;;;10526026;28;20032;-55
2022/01/18 11:00:44;;;;;;;1.23;0.47;;;18.30;63.70;;;;;;10486980;28;20029;-55
2022/01/18 11:05:46;;;;;;;2.88;0.75;;;18.20;63.90;;;;;;10479545;28;20020;-54
2022/01/18 11:10:47;;;;;;;2.03;0.70;;;18.30;63.60;;;;;;10516374;28;20137;-54
2022/01/18 11:15:51;;;;;;;2.75;0.98;;;18.40;63.10;;;;;;10492667;28;20711;-55
2022/01/18 11:20:52;;;;;;;1.55;0.60;;;18.40;62.80;;;;;;10497187;28;20062;-55
2022/01/18 11:25:53;;;;;;;3.35;0.82;;;18.50;62.60;;;;;;10496525;28;20032;-54
2022/01/18 11:30:53;;;;;;;1.63;0.60;;;18.50;62.40;;;;;;10497122;28;20044;-55
2022/01/18 11:36:04;;;;;;;1.48;0.75;;;18.50;62.50;;;;;;10504760;28;20032;-54
2022/01/18 11:41:06;;;;;;;1.30;0.63;;;18.50;62.30;;;;;;10508591;28;20032;-53
2022/01/18 11:46:20;;;;;;;1.05;0.57;;;18.50;62.10;;;;;;10518650;28;20021;-56
2022/01/18 11:51:48;;;;;;;3.47;0.82;;;18.60;62.60;;;;;;10502741;28;20361;-56
2022/01/18 11:56:49;;;;;;;1.88;0.70;;;18.60;62.50;;;;;;10515763;28;20023;-56
2022/01/18 12:01:59;;;;;;;3.28;0.80;;;18.50;62.80;;;;;;10499635;28;20505;-56
2022/01/18 12:07:00;;;;;;;1.67;0.70;;;18.50;63.00;;;;;;10496346;28;20025;-56
2022/01/18 12:12:01;;;;;;;3.67;0.90;;;18.50;62.70;;;;;;10499447;28;20017;-57
2022/01/18 12:17:13;;;;;;;2.30;0.90;;;18.50;62.90;;;;;;10497088;28;20031;-56
2022/01/18 12:22:14;;;;;;;5.55;0.93;;;18.60;62.70;;;;;;10514915;28;20020;-55
2022/01/18 12:27:32;;;;;;;1.50;0.80;;;18.50;62.80;;;;;;10499260;28;20055;-55
2022/01/18 12:32:56;;;;;;;1.90;1.02;;;18.50;62.90;;;;;;10501244;28;20749;-55
2022/01/18 12:37:57;;;;;;;2.03;1.00;;;18.60;62.60;;;;;;10519401;28;20032;-55
2022/01/18 12:48:09;;;;;;;4.63;1.25;;;18.50;62.70;;;;;;10482893;28;20523;-56
2022/01/18 12:53:27;;;;;;;3.95;1.05;;;18.50;62.90;;;;;;10470118;28;20043;-55
2022/01/18 12:58:45;;;;;;;3.85;1.25;;;18.50;62.50;;;;;;10502229;28;20267;-54
2022/01/18 13:03:53;;;;;;;2.67;1.10;;;18.50;62.70;;;;;;10481346;28;20115;-56
2022/01/18 13:08:58;;;;;;;2.53;1.20;;;18.40;62.80;;;;;;10481153;28;20024;-57
2022/01/18 13:14:09;;;;;;;3.10;1.00;;;18.30;63.00;;;;;;10523913;28;20032;-56
2022/01/18 13:29:38;;;;;;;4.65;1.20;;;18.60;62.70;;;;;;10542745;28;20044;-56
2022/01/18 13:34:42;;;;;;;8.63;1.45;;;18.60;62.80;;;;;;10507408;28;20110;-57
2022/01/18 13:39:51;;;;;;;7.90;1.35;;;18.60;63.30;;;;;;10507092;28;20415;-54
2022/01/18 13:45:11;;;;;;;7.10;1.50;;;18.60;63.20;;;;;;10523099;28;20028;-57
2022/01/18 13:50:37;;;;;;;6.35;1.60;;;18.60;63.30;;;;;;10534909;28;20021;-56
2022/01/18 13:55:55;;;;;;;8.45;1.67;;;18.50;63.60;;;;;;10507358;28;20028;-56
2022/01/18 14:01:08;;;;;;;5.88;1.58;;;18.60;63.60;;;;;;10516275;28;20103;-56
2022/01/18 14:06:11;;;;;;;7.32;1.88;;;18.60;63.90;;;;;;10521906;28;20039;-55
2022/01/18 14:11:19;;;;;;;4.32;1.58;;;18.40;64.10;;;;;;10516568;28;20029;-58
2022/01/18 14:16:24;;;;;;;7.10;1.88;;;18.40;64.10;;;;;;10513641;28;20071;-56
2022/01/18 14:21:33;;;;;;;5.70;1.50;;;18.50;64.20;;;;;;10481131;28;20476;-56
2022/01/18 14:26:35;;;;;;;5.40;2.22;;;18.50;64.00;;;;;;10507780;28;20032;-57
2022/01/18 14:31:36;;;;;;;4.28;1.17;;;18.50;64.10;;;;;;10480621;28;20098;-55
2022/01/18 14:36:53;;;;;;;4.28;2.03;;;18.50;64.10;;;;;;10507711;28;20033;-57
2022/01/18 14:42:04;;;;;;;8.10;1.60;;;18.40;64.50;;;;;;10481176;28;20028;-58
2022/01/18 14:52:27;;;;;;;10.68;1.98;;;18.50;64.20;;;;;;10510289;28;20040;-57
2022/01/18 14:57:28;;;;;;;10.57;2.72;;;18.40;64.90;;;;;;10508767;28;20488;-56
2022/01/18 15:02:30;;;;;;;15.98;2.50;;;18.40;64.20;;;;;;10485548;28;20380;-56
2022/01/18 15:07:31;;;;;;;9.48;2.42;;;18.40;64.10;;;;;;10517799;28;20023;-54
2022/01/18 15:12:39;;;;;;;7.15;2.35;;;18.30;64.10;;;;;;10513102;28;20046;-56
2022/01/18 15:17:41;;;;;;;9.75;2.40;;;18.30;64.10;;;;;;10472077;28;20488;-56
2022/01/18 15:22:42;;;;;;;12.20;2.92;;;18.40;63.70;;;;;;10493156;28;20110;-55
2022/01/18 15:27:43;;;;;;;10.13;2.40;;;18.40;64.40;;;;;;10490851;28;20107;-55
2022/01/18 15:32:45;;;;;;;10.05;2.83;;;18.40;63.70;;;;;;10497565;28;20064;-54
2022/01/18 15:37:46;;;;;;;6.15;2.47;;;18.50;63.20;;;;;;10537706;28;20035;-56
2022/01/18 15:42:47;;;;;;;4.22;1.95;;;18.40;63.20;;;;;;10532833;28;20118;-54
2022/01/18 15:47:47;;;;;;;8.50;2.67;;;18.40;62.80;;;;;;10519657;28;20491;-54
2022/01/18 15:52:48;;;;;;;7.30;3.03;;;18.40;62.40;;;;;;10518178;28;20563;-53
2022/01/18 15:57:49;;;;;;;9.57;2.80;;;18.50;62.50;;;;;;10500893;28;20032;-54
2022/01/18 16:02:50;;;;;;;7.47;2.95;;;18.80;61.90;;;;;;10498659;28;20058;-53
2022/01/18 16:07:55;;;;;;;8.95;2.70;;;18.80;61.40;;;;;;10514895;28;20055;-53
2022/01/18 16:12:58;;;;;;;6.45;3.60;;;18.90;60.80;;;;;;10496123;28;20372;-48
2022/01/18 16:17:58;;;;;;;9.75;3.17;;;18.90;60.60;;;;;;10502116;28;20116;-49
2022/01/18 16:22:59;;;;;;;7.70;3.45;;;18.90;60.40;;;;;;10528476;28;20041;-52
2022/01/18 16:28:00;;;;;;;8.90;3.20;;;18.80;59.90;;;;;;10507452;28;20066;-53
2022/01/18 16:33:01;;;;;;;8.35;3.13;;;19.00;59.20;;;;;;10524238;28;20044;-53
2022/01/18 16:38:03;;;;;;;5.30;2.63;;;19.00;58.70;;;;;;10503531;28;20047;-51
2022/01/18 16:43:05;;;;;;;8.00;3.13;;;19.00;59.00;;;;;;10502892;28;20074;-52
2022/01/18 16:48:06;;;;;;;6.47;3.58;;;18.80;59.20;;;;;;10524316;28;20039;-54
2022/01/18 16:53:07;;;;;;;6.70;3.28;;;18.70;59.50;;;;;;10503883;28;20103;-54
2022/01/18 16:58:07;;;;;;;5.95;3.70;;;18.70;59.50;;;;;;10492851;28;20032;-53
2022/01/18 17:03:08;;;;;;;5.78;3.10;;;18.60;59.50;;;;;;10502080;28;20119;-54
2022/01/18 17:08:12;;;;;;;7.45;3.58;;;18.60;59.70;;;;;;10497549;28;20037;-53
2022/01/18 17:13:13;;;;;;;10.98;3.92;;;18.60;59.40;;;;;;10521899;28;20024;-57
2022/01/18 17:18:14;;;;;;;9.60;3.30;;;18.60;60.20;;;;;;10505063;28;20040;-53
2022/01/18 17:23:15;;;;;;;8.38;3.25;;;18.60;61.80;;;;;;10492418;28;20819;-55
2022/01/18 17:28:17;;;;;;;7.38;3.38;;;18.70;62.30;;;;;;10516193;28;20036;-55
2022/01/18 17:33:18;;;;;;;10.35;3.65;;;18.70;62.70;;;;;;10513528;28;20041;-55
2022/01/18 17:38:19;;;;;;;8.13;3.78;;;18.70;63.10;;;;;;10536490;28;20117;-56
2022/01/18 17:43:21;;;;;;;9.95;3.20;;;18.60;63.30;;;;;;10507591;28;20052;-55
2022/01/18 17:48:22;;;;;;;10.90;3.10;;;18.50;63.20;;;;;;10517532;28;20534;-55
2022/01/18 17:53:22;;;;;;;10.38;3.35;;;18.50;63.40;;;;;;10524859;28;20020;-55
2022/01/18 17:58:23;;;;;;;9.32;3.30;;;18.60;63.40;;;;;;10497226;28;20044;-54
2022/01/18 18:03:24;;;;;;;10.02;3.33;;;18.50;63.10;;;;;;10499925;28;20070;-54
2022/01/18 18:08:25;;;;;;;9.90;3.28;;;18.40;63.90;;;;;;10501951;28;20063;-56
2022/01/18 18:13:26;;;;;;;9.63;3.33;;;18.50;63.10;;;;;;10519986;28;20032;-56
2022/01/18 18:18:27;;;;;;;5.07;3.05;;;18.50;62.70;;;;;;10483581;28;20158;-56
2022/01/18 18:23:28;;;;;;;4.82;3.00;;;18.50;62.40;;;;;;10499221;28;20035;-56
2022/01/18 18:28:28;;;;;;;7.93;3.15;;;18.50;62.40;;;;;;10517006;28;20104;-56
2022/01/18 18:33:29;;;;;;;8.95;2.92;;;18.50;62.20;;;;;;10463840;28;20040;-57
2022/01/18 18:38:38;;;;;;;7.53;2.92;;;18.60;62.30;;;;;;10519880;28;20031;-56
2022/01/18 18:43:41;;;;;;;9.32;2.70;;;18.60;62.70;;;;;;10501618;28;20047;-57
2022/01/18 18:48:45;;;;;;;4.97;2.50;;;18.60;62.80;;;;;;10478664;28;20028;-57
2022/01/18 18:53:46;;;;;;;10.60;2.85;;;18.70;62.30;;;;;;10499794;28;20016;-57
2022/01/18 18:59:03;;;;;;;6.90;2.53;;;18.60;62.40;;;;;;10490543;28;20114;-58
2022/01/18 19:04:04;;;;;;;4.20;2.10;;;18.60;62.30;;;;;;10501045;28;20098;-56
2022/01/18 19:09:05;;;;;;;5.05;3.20;;;18.60;62.50;;;;;;10514016;28;20114;-56
2022/01/18 19:14:07;;;;;;;6.85;3.28;;;18.60;62.50;;;;;;10532364;28;20032;-58
2022/01/18 19:19:09;;;;;;;8.32;3.60;;;18.60;62.70;;;;;;10514458;28;20031;-58
2022/01/18 19:24:11;;;;;;;4.03;3.17;;;18.70;62.60;;;;;;10499886;28;20028;-56
2022/01/18 19:29:12;;;;;;;3.97;2.88;;;18.70;62.80;;;;;;10504450;28;20037;-58
2022/01/18 19:34:17;;;;;;;5.60;3.00;;;18.60;63.10;;;;;;10513010;28;20094;-57
2022/01/18 19:39:18;;;;;;;6.93;3.67;;;18.60;63.10;;;;;;10517165;28;20028;-58
2022/01/18 19:44:19;;;;;;;6.60;3.92;;;18.60;63.30;;;;;;10525665;28;20107;-57
2022/01/18 19:49:20;;;;;;;7.75;3.28;;;18.60;63.50;;;;;;10524203;28;20062;-58
2022/01/18 19:54:20;;;;;;;4.97;3.20;;;18.60;63.10;;;;;;10523866;28;20126;-58
2022/01/18 19:59:21;;;;;;;6.22;3.67;;;18.50;63.30;;;;;;10503710;28;20024;-58
2022/01/18 20:04:22;;;;;;;8.48;3.13;;;18.60;63.30;;;;;;10512732;28;20123;-55
2022/01/18 20:09:23;;;;;;;10.43;2.75;;;18.50;63.40;;;;;;10520962;28;20032;-57
2022/01/18 20:14:29;;;;;;;7.20;2.60;;;18.60;63.40;;;;;;10511688;28;20020;-56
2022/01/18 20:19:38;;;;;;;4.35;2.60;;;18.60;63.30;;;;;;10518226;28;20506;-57
2022/01/18 20:24:41;;;;;;;6.35;3.28;;;18.60;63.30;;;;;;10495452;28;20036;-56
2022/01/18 20:29:43;;;;;;;6.55;3.42;;;18.60;63.10;;;;;;10498859;28;20032;-56
2022/01/18 20:34:45;;;;;;;5.57;2.72;;;18.50;63.20;;;;;;10499669;28;20025;-58
2022/01/18 20:39:48;;;;;;;6.25;2.55;;;18.50;63.10;;;;;;10515188;28;20040;-54
2022/01/18 20:44:52;;;;;;;9.38;2.92;;;18.50;63.20;;;;;;10516114;28;20025;-56
2022/01/18 20:49:53;;;;;;;4.55;2.70;;;18.50;63.00;;;;;;10516984;28;20032;-57
2022/01/18 20:54:55;;;;;;;7.13;2.45;;;18.50;63.00;;;;;;10522411;28;20120;-58
2022/01/18 20:59:56;;;;;;;4.95;2.88;;;18.50;62.90;;;;;;10515907;28;20032;-56
2022/01/18 21:04:58;;;;;;;5.03;2.38;;;18.40;62.90;;;;;;10494472;28;20078;-56
2022/01/18 21:09:59;;;;;;;8.13;3.75;;;18.50;62.80;;;;;;10483166;28;20094;-56
2022/01/18 21:15:00;;;;;;;4.32;2.63;;;18.40;62.80;;;;;;10487547;28;20067;-56
2022/01/18 21:20:01;;;;;;;6.75;2.47;;;18.40;62.60;;;;;;10514371;28;20060;-55
2022/01/18 21:25:03;;;;;;;4.50;2.40;;;18.40;62.70;;;;;;10525775;28;20119;-57
2022/01/18 21:30:05;;;;;;;4.28;2.25;;;18.50;62.50;;;;;;10520562;28;20114;-56
2022/01/18 21:35:08;;;;;;;3.30;2.15;;;18.50;62.50;;;;;;10516660;28;20052;-56
2022/01/18 21:40:10;;;;;;;4.57;2.60;;;18.50;62.20;;;;;;10482962;28;20085;-56
2022/01/18 21:45:10;;;;;;;3.65;2.00;;;18.50;62.30;;;;;;10498815;28;20029;-57
2022/01/18 21:50:13;;;;;;;3.60;2.20;;;18.60;62.10;;;;;;10514171;28;20021;-56
2022/01/18 21:55:14;;;;;;;4.43;2.65;;;18.60;62.00;;;;;;10497069;28;20094;-57
2022/01/18 22:00:17;;;;;;;4.22;2.08;;;18.60;61.80;;;;;;10490748;28;20033;-56
2022/01/18 22:05:17;;;;;;;3.60;2.00;;;18.60;62.30;;;;;;10520228;28;20140;-57
2022/01/18 22:10:19;;;;;;;3.38;1.95;;;18.60;61.60;;;;;;10499229;28;20035;-56
2022/01/18 22:15:20;;;;;;;3.17;2.10;;;18.70;61.60;;;;;;10520354;28;20032;-56
2022/01/18 22:20:20;;;;;;;4.15;2.47;;;18.60;61.70;;;;;;10485634;28;20075;-56
2022/01/18 22:25:21;;;;;;;3.53;2.42;;;18.60;61.70;;;;;;10510609;28;20027;-57
2022/01/18 22:30:22;;;;;;;4.57;2.63;;;18.60;61.70;;;;;;10513691;28;20048;-56
2022/01/18 22:35:23;;;;;;;4.90;2.10;;;18.60;61.70;;;;;;10524907;28;20032;-57
2022/01/18 22:40:24;;;;;;;3.47;2.17;;;18.60;61.50;;;;;;10498609;28;20678;-57
2022/01/18 22:45:24;;;;;;;4.28;2.47;;;18.60;61.40;;;;;;10464322;28;20039;-56
2022/01/18 22:50:25;;;;;;;3.30;2.17;;;18.60;61.50;;;;;;10483710;28;20025;-57
2022/01/18 22:55:26;;;;;;;4.10;2.65;;;18.60;61.30;;;;;;10507463;28;20047;-56
2022/01/18 23:00:27;;;;;;;4.10;2.10;;;18.70;61.30;;;;;;10493079;28;20032;-57
2022/01/18 23:05:28;;;;;;;3.50;2.15;;;18.60;61.10;;;;;;10496016;28;20044;-56
2022/01/18 23:10:31;;;;;;;3.35;1.98;;;18.70;61.20;;;;;;10510942;28;20032;-56
2022/01/18 23:15:31;;;;;;;3.13;1.70;;;18.70;61.00;;;;;;10505070;28;20107;-56
2022/01/18 23:20:32;;;;;;;3.25;1.77;;;18.70;60.90;;;;;;10506923;28;20811;-56
2022/01/18 23:25:33;;;;;;;3.20;1.88;;;18.70;60.90;;;;;;10512284;28;20499;-57
2022/01/18 23:30:34;;;;;;;3.58;2.17;;;18.80;60.70;;;;;;10535194;28;20044;-57
2022/01/18 23:35:35;;;;;;;3.50;2.10;;;18.80;60.80;;;;;;10505241;28;20030;-57
2022/01/18 23:45:56;;;;;;;4.55;2.03;;;18.70;60.80;;;;;;10497077;28;20040;-57
2022/01/18 23:50:57;;;;;;;4.00;2.28;;;18.70;60.90;;;;;;10484325;28;20024;-57
2022/01/18 23:55:58;;;;;;;3.97;2.38;;;18.70;61.00;;;;;;10496034;28;20385;-57
